createdAt,value
2023-05-19T00:01:30.163Z,91.36
2023-05-19T00:04:02.791Z,91.48
2023-05-19T00:06:33.399Z,91.59
2023-05-19T00:09:04.950Z,91.61
2023-05-19T00:11:33.506Z,91.22
2023-05-19T00:14:01.268Z,91.23
2023-05-19T00:16:30.917Z,91.33
2023-05-19T00:19:00.317Z,91.63
2023-05-19T00:21:29.532Z,91.53
2023-05-19T00:23:57.978Z,91.42
2023-05-19T00:26:27.808Z,91.39
2023-05-19T00:28:55.631Z,91.39
2023-05-19T00:31:29.638Z,91.39
2023-05-19T00:33:57.258Z,91.37
2023-05-19T00:36:25.287Z,91.44
2023-05-19T00:38:52.870Z,91.80
2023-05-19T00:41:21.415Z,91.69
2023-05-19T00:43:49.588Z,91.62
2023-05-19T00:46:18.612Z,91.65
2023-05-19T00:48:46.188Z,92.05
2023-05-19T00:51:17.250Z,91.69
2023-05-19T00:53:49.484Z,91.76
2023-05-19T00:56:18.501Z,91.72
2023-05-19T00:58:46.121Z,91.81
2023-05-19T01:01:17.422Z,92.11
2023-05-19T01:03:45.433Z,92.44
2023-05-19T01:06:13.212Z,92.88
2023-05-19T01:08:40.787Z,92.46
2023-05-19T01:11:08.882Z,93.12
2023-05-19T01:13:38.184Z,92.42
2023-05-19T01:16:40.363Z,92.88
2023-05-19T01:20:02.262Z,92.78
2023-05-19T01:23:15.299Z,92.90
2023-05-19T01:26:16.316Z,92.96
2023-05-19T01:29:17.250Z,93.75
2023-05-19T01:31:48.135Z,93.95
2023-05-19T01:34:18.623Z,94.23
2023-05-19T01:36:50.004Z,94.10
2023-05-19T01:39:18.799Z,93.96
2023-05-19T01:41:47.554Z,93.61
2023-05-19T01:44:16.357Z,94.09
2023-05-19T01:46:43.979Z,94.16
2023-05-19T01:49:12.012Z,93.91
2023-05-19T01:51:40.840Z,94.30
2023-05-19T01:54:08.505Z,94.59
2023-05-19T01:56:52.034Z,94.52
2023-05-19T01:59:43.236Z,94.62
2023-05-19T02:03:01.329Z,95.41
2023-05-19T02:05:55.742Z,95.56
2023-05-19T02:08:50.375Z,95.71
2023-05-19T02:11:54.657Z,95.79
2023-05-19T02:15:05.053Z,95.67
2023-05-19T02:17:38.483Z,95.17
2023-05-19T02:20:07.440Z,95.26
2023-05-19T02:22:36.078Z,95.43
2023-05-19T02:25:03.675Z,95.02
2023-05-19T02:27:31.446Z,94.94
2023-05-19T02:29:58.901Z,94.68
2023-05-19T02:32:26.579Z,94.33
2023-05-19T02:34:56.618Z,94.38
2023-05-19T02:37:25.378Z,94.01
2023-05-19T02:39:52.645Z,94.17
2023-05-19T02:42:20.623Z,94.27
2023-05-19T02:44:48.503Z,94.59
2023-05-19T02:47:16.205Z,94.96
2023-05-19T02:49:44.292Z,94.58
2023-05-19T02:52:12.434Z,94.70
2023-05-19T02:54:39.777Z,94.40
2023-05-19T02:57:07.508Z,94.33
2023-05-19T02:59:34.961Z,94.13
2023-05-19T03:02:03.128Z,94.00
2023-05-19T03:04:30.665Z,94.25
2023-05-19T03:06:58.309Z,94.39
2023-05-19T03:09:25.786Z,94.60
2023-05-19T03:11:53.345Z,94.71
2023-05-19T03:14:24.136Z,94.83
2023-05-19T03:16:52.429Z,94.50
2023-05-19T03:19:20.023Z,93.89
2023-05-19T03:21:49.732Z,93.44
2023-05-19T03:24:17.802Z,93.45
2023-05-19T03:26:46.033Z,93.55
2023-05-19T03:29:13.386Z,93.19
2023-05-19T03:31:41.001Z,92.75
2023-05-19T03:34:08.372Z,92.72
2023-05-19T03:36:39.930Z,92.44
2023-05-19T03:39:07.435Z,92.46
2023-05-19T03:41:35.044Z,92.62
2023-05-19T03:44:02.374Z,92.45
2023-05-19T03:46:30.016Z,92.32
2023-05-19T03:48:57.360Z,92.32
2023-05-19T03:51:25.034Z,92.33
2023-05-19T03:53:52.759Z,92.33
2023-05-19T03:56:23.201Z,91.97
2023-05-19T03:58:50.667Z,91.33
2023-05-19T04:01:18.337Z,91.15
2023-05-19T04:03:45.778Z,90.96
2023-05-19T04:06:13.484Z,91.10
2023-05-19T04:08:40.922Z,90.52
2023-05-19T04:11:08.586Z,90.86
2023-05-19T04:13:35.988Z,91.32
2023-05-19T04:16:03.827Z,90.69
2023-05-19T04:18:31.605Z,90.46
2023-05-19T04:20:59.173Z,90.58
2023-05-19T04:23:26.556Z,90.36
2023-05-19T04:25:54.991Z,90.80
2023-05-19T04:28:24.014Z,89.98
2023-05-19T04:30:51.864Z,90.63
2023-05-19T04:33:20.260Z,90.18
2023-05-19T04:35:47.939Z,89.81
2023-05-19T04:38:19.010Z,89.99
2023-05-19T04:40:50.421Z,89.96
2023-05-19T04:43:19.442Z,89.78
2023-05-19T04:45:50.304Z,89.74
2023-05-19T04:48:17.679Z,89.86
2023-05-19T04:50:45.462Z,89.62
2023-05-19T04:53:12.762Z,89.78
2023-05-19T04:55:40.523Z,89.77
2023-05-19T04:58:08.106Z,89.38
2023-05-19T05:00:37.545Z,89.07
2023-05-19T05:03:08.116Z,89.11
2023-05-19T05:05:36.220Z,88.53
2023-05-19T05:08:03.711Z,89.02
2023-05-19T05:10:31.484Z,88.77
2023-05-19T05:13:00.877Z,88.45
2023-05-19T05:15:29.978Z,88.58
2023-05-19T05:17:58.106Z,88.69
2023-05-19T05:20:26.742Z,88.83
2023-05-19T05:22:54.578Z,88.44
2023-05-19T05:25:22.705Z,89.06
2023-05-19T05:27:50.150Z,88.79
2023-05-19T05:30:17.775Z,88.17
2023-05-19T05:32:45.292Z,87.93
2023-05-19T05:35:13.362Z,87.84
2023-05-19T05:37:40.670Z,86.92
2023-05-19T05:40:09.260Z,86.48
2023-05-19T05:42:36.617Z,86.61
2023-05-19T05:45:04.701Z,87.04
2023-05-19T05:47:32.480Z,86.68
2023-05-19T05:50:00.505Z,86.55
2023-05-19T05:52:32.320Z,86.80
2023-05-19T05:55:00.391Z,86.79
2023-05-19T05:57:30.648Z,86.50
2023-05-19T05:59:58.505Z,86.92
2023-05-19T06:02:26.297Z,87.05
2023-05-19T06:04:54.366Z,86.45
2023-05-19T06:07:21.939Z,87.14
2023-05-19T06:09:49.564Z,86.85
2023-05-19T06:12:16.946Z,87.03
2023-05-19T06:14:44.519Z,86.09
2023-05-19T06:17:11.827Z,85.93
2023-05-19T06:19:39.351Z,86.34
2023-05-19T06:22:06.833Z,86.53
2023-05-19T06:24:34.464Z,86.24
2023-05-19T06:27:01.783Z,85.71
2023-05-19T06:29:29.580Z,85.67
2023-05-19T06:31:57.134Z,85.75
2023-05-19T06:34:24.848Z,85.40
2023-05-19T06:36:52.187Z,85.27
2023-05-19T06:39:19.815Z,85.22
2023-05-19T06:41:47.174Z,85.46
2023-05-19T06:44:14.801Z,85.02
2023-05-19T06:46:42.209Z,84.52
2023-05-19T06:49:11.539Z,84.92
2023-05-19T06:51:38.883Z,84.87
2023-05-19T06:54:06.538Z,84.99
2023-05-19T06:56:33.819Z,84.55
2023-05-19T06:59:01.511Z,85.45
2023-05-19T07:01:30.342Z,84.63
2023-05-19T07:03:58.153Z,84.41
2023-05-19T07:06:25.604Z,84.19
2023-05-19T07:08:53.366Z,83.65
2023-05-19T07:11:21.750Z,83.57
2023-05-19T07:13:49.371Z,84.13
2023-05-19T07:16:16.730Z,83.18
2023-05-19T07:18:44.650Z,83.18
2023-05-19T07:21:11.963Z,82.95
2023-05-19T07:23:39.626Z,83.08
2023-05-19T07:26:07.075Z,83.08
2023-05-19T07:28:34.889Z,82.44
2023-05-19T07:31:02.592Z,81.91
2023-05-19T07:33:30.101Z,81.76
2023-05-19T07:35:57.424Z,81.26
2023-05-19T07:38:25.314Z,81.19
2023-05-19T07:40:52.790Z,80.35
2023-05-19T07:43:20.374Z,81.53
2023-05-19T07:45:47.732Z,81.45
2023-05-19T07:48:15.525Z,81.75
2023-05-19T07:50:43.080Z,80.98
2023-05-19T07:53:10.748Z,81.17
2023-05-19T07:55:38.034Z,80.99
2023-05-19T07:58:06.048Z,80.79
2023-05-19T08:00:33.502Z,80.91
2023-05-19T08:03:02.421Z,81.43
2023-05-19T08:05:30.103Z,81.55
2023-05-19T08:07:57.785Z,81.84
2023-05-19T08:10:25.151Z,81.33
2023-05-19T08:12:52.869Z,81.43
2023-05-19T08:15:21.049Z,81.82
2023-05-19T08:17:48.759Z,82.86
2023-05-19T08:20:16.229Z,81.78
2023-05-19T08:22:43.840Z,81.93
2023-05-19T08:25:11.813Z,82.32
2023-05-19T08:27:39.451Z,81.40
2023-05-19T08:30:08.216Z,81.49
2023-05-19T08:32:36.487Z,81.44
2023-05-19T08:35:04.380Z,81.80
2023-05-19T08:37:34.014Z,80.98
2023-05-19T08:40:01.532Z,81.40
2023-05-19T08:42:29.412Z,81.64
2023-05-19T08:44:56.895Z,81.46
2023-05-19T08:47:26.165Z,81.71
2023-05-19T08:50:03.878Z,80.89
2023-05-19T08:52:58.369Z,80.30
2023-05-19T08:55:41.356Z,78.94
2023-05-19T08:58:10.881Z,78.73
2023-05-19T09:00:39.187Z,78.66
2023-05-19T09:05:39.742Z,78.74
2023-05-19T09:08:07.886Z,78.33
2023-05-19T09:10:35.262Z,77.93
2023-05-19T09:13:02.953Z,76.40
2023-05-19T09:15:32.928Z,76.33
2023-05-19T09:18:19.033Z,74.93
2023-05-19T09:20:47.501Z,75.45
2023-05-19T09:23:17.316Z,75.12
2023-05-19T09:25:52.289Z,75.39
2023-05-19T09:28:30.581Z,76.09
2023-05-19T09:31:02.186Z,74.82
2023-05-19T09:33:31.654Z,75.30
2023-05-19T09:35:59.238Z,75.54
2023-05-19T09:38:28.444Z,76.14
2023-05-19T09:41:00.952Z,76.11
2023-05-19T09:43:36.652Z,76.14
2023-05-19T09:46:10.526Z,74.78
2023-05-19T09:48:40.445Z,75.29
2023-05-19T09:51:11.215Z,75.86
2023-05-19T09:53:39.552Z,74.86
2023-05-19T09:56:10.396Z,74.84
2023-05-19T09:58:42.243Z,74.66
2023-05-19T10:01:09.909Z,74.94
2023-05-19T10:03:39.386Z,73.61
2023-05-19T10:06:09.336Z,73.53
2023-05-19T10:08:39.919Z,73.84
2023-05-19T10:11:08.371Z,73.15
2023-05-19T10:13:39.457Z,71.89
2023-05-19T10:16:09.599Z,72.08
2023-05-19T10:18:40.190Z,70.92
2023-05-19T10:21:09.737Z,69.91
2023-05-19T10:23:37.680Z,70.06
2023-05-19T10:26:07.600Z,70.32
2023-05-19T10:28:43.101Z,70.58
2023-05-19T10:31:18.698Z,70.59
2023-05-19T10:34:22.383Z,70.70
2023-05-19T10:37:21.819Z,70.94
2023-05-19T10:39:52.671Z,71.58
2023-05-19T10:42:38.298Z,71.54
2023-05-19T10:45:24.204Z,71.49
2023-05-19T10:47:51.982Z,71.66
2023-05-19T10:50:21.064Z,71.52
2023-05-19T10:52:55.952Z,71.40
2023-05-19T10:55:48.072Z,71.50
2023-05-19T10:58:15.750Z,72.62
2023-05-19T11:00:43.775Z,72.59
2023-05-19T11:03:17.900Z,71.25
2023-05-19T11:05:46.556Z,71.58
2023-05-19T11:08:14.258Z,70.33
2023-05-19T11:10:46.397Z,69.28
2023-05-19T11:13:28.413Z,69.36
2023-05-19T11:15:56.743Z,69.74
2023-05-19T11:18:24.853Z,68.97
2023-05-19T11:21:02.677Z,68.75
2023-05-19T11:23:35.508Z,69.58
2023-05-19T11:26:03.516Z,70.09
2023-05-19T11:28:31.451Z,70.36
2023-05-19T11:31:02.322Z,69.51
2023-05-19T11:33:32.819Z,69.72
2023-05-19T11:36:00.741Z,68.92
2023-05-19T11:38:30.409Z,68.91
2023-05-19T11:40:58.270Z,69.39
2023-05-19T11:43:26.341Z,69.46
2023-05-19T11:45:55.265Z,69.02
2023-05-19T11:48:23.451Z,67.84
2023-05-19T11:50:51.424Z,67.83
2023-05-19T11:53:19.973Z,68.08
2023-05-19T11:55:49.011Z,68.40
2023-05-19T11:58:17.395Z,68.51
2023-05-19T12:00:49.072Z,66.70
2023-05-19T12:03:21.906Z,66.60
2023-05-19T12:05:50.365Z,66.38
2023-05-19T12:08:21.776Z,66.09
2023-05-19T12:10:50.950Z,66.34
2023-05-19T12:13:19.452Z,66.58
2023-05-19T12:15:47.332Z,66.77
2023-05-19T12:18:14.791Z,66.35
2023-05-19T12:20:43.218Z,65.79
2023-05-19T12:23:10.949Z,64.31
2023-05-19T12:25:38.802Z,64.89
2023-05-19T12:28:07.414Z,66.32
2023-05-19T12:30:35.570Z,66.25
2023-05-19T12:33:03.679Z,66.98
2023-05-19T12:35:34.237Z,66.19
2023-05-19T12:38:07.002Z,66.06
2023-05-19T12:40:37.709Z,66.81
2023-05-19T12:43:07.059Z,67.27
2023-05-19T12:45:39.972Z,68.08
2023-05-19T12:48:12.706Z,67.77
2023-05-19T12:50:40.726Z,67.60
2023-05-19T12:53:15.431Z,67.82
2023-05-19T12:55:45.633Z,67.76
2023-05-19T12:58:15.954Z,66.94
2023-05-19T13:00:48.624Z,67.58
2023-05-19T13:03:19.710Z,66.84
2023-05-19T13:05:51.021Z,66.68
2023-05-19T13:08:24.166Z,66.77
2023-05-19T13:10:52.099Z,67.69
2023-05-19T13:13:19.580Z,67.56
2023-05-19T13:15:49.230Z,67.75
2023-05-19T13:18:17.732Z,67.56
2023-05-19T13:20:47.440Z,67.49
2023-05-19T13:23:16.031Z,67.60
2023-05-19T13:25:43.879Z,67.31
2023-05-19T13:28:11.273Z,67.48
2023-05-19T13:30:41.446Z,67.03
2023-05-19T13:33:09.071Z,68.00
2023-05-19T13:35:37.954Z,68.65
2023-05-19T13:38:08.001Z,68.00
2023-05-19T13:40:36.795Z,67.81
2023-05-19T13:43:05.142Z,67.53
2023-05-19T13:45:33.112Z,68.39
2023-05-19T13:48:00.743Z,68.67
2023-05-19T13:50:28.526Z,68.70
2023-05-19T13:52:55.938Z,68.97
2023-05-19T13:55:23.716Z,69.15
2023-05-19T13:57:51.047Z,68.98
2023-05-19T14:00:19.537Z,69.06
2023-05-19T14:02:47.347Z,69.38
2023-05-19T14:05:15.059Z,69.95
2023-05-19T14:07:42.749Z,70.31
2023-05-19T14:10:10.773Z,71.55
2023-05-19T14:12:55.125Z,70.55
2023-05-19T14:15:27.084Z,70.21
2023-05-19T14:17:54.568Z,70.60
2023-05-19T14:20:22.305Z,70.28
2023-05-19T14:22:49.585Z,70.42
2023-05-19T14:25:17.259Z,71.25
2023-05-19T14:27:44.569Z,71.18
2023-05-19T14:30:12.817Z,71.99
2023-05-19T14:32:40.205Z,72.82
2023-05-19T14:35:08.289Z,73.22
2023-05-19T14:37:35.712Z,73.22
2023-05-19T14:40:04.656Z,73.64
2023-05-19T14:42:32.012Z,73.16
2023-05-19T14:44:59.592Z,73.54
2023-05-19T14:47:27.443Z,73.53
2023-05-19T14:49:55.317Z,73.31
2023-05-19T14:52:23.117Z,72.74
2023-05-19T14:54:50.785Z,72.89
2023-05-19T14:57:18.051Z,73.43
2023-05-19T14:59:45.596Z,73.81
2023-05-19T15:02:12.965Z,73.85
2023-05-19T15:04:40.660Z,73.53
2023-05-19T15:07:10.728Z,74.61
2023-05-19T15:09:39.672Z,75.07
2023-05-19T15:12:06.976Z,76.90
2023-05-19T15:14:34.545Z,76.52
2023-05-19T15:17:01.945Z,76.31
2023-05-19T15:19:29.536Z,76.82
2023-05-19T15:21:56.951Z,76.60
2023-05-19T15:24:24.573Z,76.81
2023-05-19T15:26:52.523Z,77.47
2023-05-19T15:29:20.176Z,76.93
2023-05-19T15:31:51.896Z,76.43
2023-05-19T15:34:20.952Z,76.13
2023-05-19T15:36:48.249Z,76.45
2023-05-19T15:39:16.004Z,76.40
2023-05-19T15:41:43.377Z,76.55
2023-05-19T15:44:11.083Z,77.10
2023-05-19T15:46:38.448Z,77.28
2023-05-19T15:49:06.153Z,77.50
2023-05-19T15:51:33.684Z,78.09
2023-05-19T15:54:01.198Z,78.15
2023-05-19T15:56:29.085Z,78.91
2023-05-19T15:58:56.738Z,79.36
2023-05-19T16:01:24.160Z,79.73
2023-05-19T16:03:52.024Z,79.62
2023-05-19T16:06:19.468Z,81.02
2023-05-19T16:08:47.128Z,80.98
2023-05-19T16:11:14.698Z,81.52
2023-05-19T16:13:42.300Z,81.47
2023-05-19T16:16:09.790Z,81.60
2023-05-19T16:18:37.560Z,82.13
2023-05-19T16:21:05.281Z,82.24
2023-05-19T16:23:32.951Z,82.57
2023-05-19T16:26:00.389Z,82.32
2023-05-19T16:28:28.785Z,81.92
2023-05-19T16:31:00.255Z,82.20
2023-05-19T16:33:28.583Z,82.57
2023-05-19T16:35:56.396Z,82.61
2023-05-19T16:38:23.996Z,82.44
2023-05-19T16:40:51.275Z,81.91
2023-05-19T16:43:18.914Z,82.37
2023-05-19T16:45:46.343Z,82.80
2023-05-19T16:48:14.053Z,82.99
2023-05-19T16:50:41.452Z,83.23
2023-05-19T16:53:09.046Z,83.55
2023-05-19T16:55:36.362Z,84.45
2023-05-19T16:58:04.048Z,84.53
2023-05-19T17:00:31.510Z,84.92
2023-05-19T17:02:59.426Z,85.44
2023-05-19T17:05:27.862Z,85.48
2023-05-19T17:07:55.534Z,85.79
2023-05-19T17:10:22.822Z,85.63
2023-05-19T17:12:50.440Z,85.80
2023-05-19T17:15:17.846Z,86.42
2023-05-19T17:17:45.482Z,86.87
2023-05-19T17:20:13.604Z,86.77
2023-05-19T17:22:41.266Z,87.05
2023-05-19T17:25:09.474Z,87.45
2023-05-19T17:27:37.104Z,87.39
2023-05-19T17:30:05.075Z,87.52
2023-05-19T17:32:36.010Z,87.47
2023-05-19T17:35:05.469Z,88.05
2023-05-19T17:37:33.588Z,88.09
2023-05-19T17:40:01.108Z,88.08
2023-05-19T17:42:29.328Z,88.16
2023-05-19T17:44:56.611Z,87.91
2023-05-19T17:47:24.237Z,88.18
2023-05-19T17:49:54.457Z,88.64
2023-05-19T17:52:22.547Z,88.22
2023-05-19T17:54:50.854Z,88.45
2023-05-19T17:57:18.804Z,88.80
2023-05-19T17:59:46.647Z,88.96
2023-05-19T18:02:15.771Z,89.87
2023-05-19T18:04:43.900Z,89.91
2023-05-19T18:07:12.230Z,90.13
2023-05-19T18:09:45.691Z,90.40
2023-05-19T18:12:13.650Z,90.34
2023-05-19T18:14:40.993Z,90.57
2023-05-19T18:17:08.648Z,90.51
2023-05-19T18:19:36.067Z,90.80
2023-05-19T18:22:03.788Z,90.50
2023-05-19T18:24:31.284Z,90.32
2023-05-19T18:26:59.075Z,90.85
2023-05-19T18:29:26.420Z,91.08
2023-05-19T18:31:54.108Z,90.34
2023-05-19T18:34:21.527Z,90.22
2023-05-19T18:36:49.350Z,90.59
2023-05-19T18:39:16.768Z,90.24
2023-05-19T18:41:44.444Z,89.99
2023-05-19T18:44:12.155Z,90.30
2023-05-19T18:46:40.016Z,90.93
2023-05-19T18:49:07.436Z,91.08
2023-05-19T18:51:36.172Z,91.32
2023-05-19T18:54:03.579Z,91.60
2023-05-19T18:56:33.396Z,91.28
2023-05-19T18:59:00.648Z,91.54
2023-05-19T19:01:28.500Z,91.61
2023-05-19T19:03:56.010Z,92.00
2023-05-19T19:06:23.604Z,92.15
2023-05-19T19:08:51.617Z,91.84
2023-05-19T19:11:19.271Z,92.16
2023-05-19T19:13:47.105Z,92.11
2023-05-19T19:16:15.857Z,92.33
2023-05-19T19:18:43.338Z,92.71
2023-05-19T19:21:11.131Z,92.92
2023-05-19T19:23:38.666Z,92.90
2023-05-19T19:26:08.615Z,92.44
2023-05-19T19:28:35.928Z,92.90
2023-05-19T19:31:03.739Z,92.36
2023-05-19T19:33:31.068Z,92.47
2023-05-19T19:35:58.665Z,92.55
2023-05-19T19:38:25.973Z,92.77
2023-05-19T19:40:53.723Z,92.79
2023-05-19T19:43:20.968Z,93.00
2023-05-19T19:45:48.573Z,93.32
2023-05-19T19:48:15.998Z,93.38
2023-05-19T19:50:43.522Z,93.94
2023-05-19T19:53:11.053Z,94.14
2023-05-19T19:55:38.612Z,94.34
2023-05-19T19:58:06.007Z,94.71
2023-05-19T20:00:33.805Z,94.57
2023-05-19T20:03:05.584Z,95.20
2023-05-19T20:05:33.667Z,95.05
2023-05-19T20:08:01.272Z,94.69
2023-05-19T20:10:28.929Z,94.94
2023-05-19T20:12:56.425Z,95.02
2023-05-19T20:15:23.970Z,94.96
2023-05-19T20:17:51.335Z,94.74
2023-05-19T20:20:19.038Z,94.55
2023-05-19T20:22:46.421Z,94.30
2023-05-19T20:25:14.122Z,94.33
2023-05-19T20:27:41.414Z,94.63
2023-05-19T20:30:09.621Z,94.61
2023-05-19T20:32:37.159Z,94.58
2023-05-19T20:35:06.924Z,94.26
2023-05-19T20:37:34.423Z,94.29
2023-05-19T20:40:02.047Z,94.39
2023-05-19T20:42:29.376Z,94.32
2023-05-19T20:44:57.463Z,94.15
2023-05-19T20:47:24.968Z,93.78
2023-05-19T20:49:52.592Z,94.08
2023-05-19T20:52:19.905Z,94.42
2023-05-19T20:54:47.503Z,94.79
2023-05-19T20:57:14.864Z,94.37
2023-05-19T20:59:42.784Z,94.43
2023-05-19T21:02:11.698Z,94.30
2023-05-19T21:04:39.638Z,95.40
2023-05-19T21:07:07.021Z,94.69
2023-05-19T21:09:34.619Z,94.75
2023-05-19T21:12:02.358Z,95.29
2023-05-19T21:14:29.991Z,94.99
2023-05-19T21:16:57.301Z,94.83
2023-05-19T21:19:25.104Z,95.49
2023-05-19T21:21:52.537Z,95.49
2023-05-19T21:24:20.122Z,94.98
2023-05-19T21:26:49.297Z,94.82
2023-05-19T21:29:17.026Z,95.40
2023-05-19T21:31:44.306Z,94.87
2023-05-19T21:34:11.926Z,94.21
2023-05-19T21:36:39.282Z,94.62
2023-05-19T21:39:06.829Z,94.47
2023-05-19T21:41:34.298Z,94.80
2023-05-19T21:44:02.027Z,94.58
2023-05-19T21:46:29.574Z,94.65
2023-05-19T21:48:57.209Z,94.96
2023-05-19T21:51:24.525Z,95.41
2023-05-19T21:53:52.080Z,95.73
2023-05-19T21:56:19.428Z,96.37
2023-05-19T21:58:46.972Z,95.93
2023-05-19T22:01:14.759Z,97.12
2023-05-19T22:03:42.430Z,96.54
2023-05-19T22:06:09.732Z,96.14
2023-05-19T22:08:37.297Z,96.00
2023-05-19T22:11:04.951Z,95.91
2023-05-19T22:13:33.970Z,95.70
2023-05-19T22:16:01.492Z,95.90
2023-05-19T22:18:29.354Z,95.73
2023-05-19T22:20:56.668Z,95.45
2023-05-19T22:23:24.671Z,95.29
2023-05-19T22:25:52.287Z,95.49
2023-05-19T22:28:19.959Z,95.25
2023-05-19T22:30:47.272Z,95.45
2023-05-19T22:33:15.115Z,95.61
2023-05-19T22:35:42.668Z,95.80
2023-05-19T22:38:10.805Z,95.70
2023-05-19T22:40:38.896Z,95.60
2023-05-19T22:43:06.569Z,95.31
2023-05-19T22:45:36.630Z,95.65
2023-05-19T22:48:05.117Z,95.94
2023-05-19T22:50:32.538Z,95.57
2023-05-19T22:53:00.311Z,95.49
2023-05-19T22:55:27.628Z,95.17
2023-05-19T22:57:56.296Z,95.00
2023-05-19T23:00:23.775Z,95.35
2023-05-19T23:02:51.525Z,95.29
2023-05-19T23:05:19.189Z,95.33
2023-05-19T23:07:47.222Z,95.49
2023-05-19T23:10:14.768Z,95.26
2023-05-19T23:12:42.557Z,95.48
2023-05-19T23:15:11.143Z,95.66
2023-05-19T23:17:38.797Z,95.47
2023-05-19T23:20:07.425Z,95.08
2023-05-19T23:22:35.024Z,95.59
2023-05-19T23:25:05.897Z,95.31
2023-05-19T23:27:35.712Z,96.24
2023-05-19T23:30:04.235Z,96.09
2023-05-19T23:32:32.349Z,97.01
2023-05-19T23:35:11.014Z,96.46
2023-05-19T23:37:39.111Z,95.88
2023-05-19T23:40:07.688Z,95.69
2023-05-19T23:42:41.527Z,96.00
2023-05-19T23:45:09.333Z,96.03
2023-05-19T23:47:36.995Z,95.68
2023-05-19T23:50:04.646Z,94.99
2023-05-19T23:52:32.892Z,95.13
2023-05-19T23:55:00.405Z,95.32
2023-05-19T23:57:27.954Z,95.60
2023-05-19T23:59:55.208Z,95.93
